createdAt,value
2023-11-13T00:03:16.429Z,21
2023-11-13T00:09:09.505Z,21
2023-11-13T00:15:00.777Z,21
2023-11-13T00:20:53.847Z,21
2023-11-13T00:26:45.260Z,20.9
2023-11-13T00:32:37.230Z,21
2023-11-13T00:38:29.773Z,21
2023-11-13T00:44:24.819Z,20.9
2023-11-13T00:50:17.073Z,20.9
2023-11-13T00:56:09.440Z,20.9
2023-11-13T01:02:01.226Z,20.9
2023-11-13T01:07:54.380Z,20.9
2023-11-13T01:13:46.864Z,20.9
2023-11-13T01:19:37.763Z,20.9
2023-11-13T01:25:29.713Z,20.9
2023-11-13T01:31:25.102Z,20.9
2023-11-13T01:37:16.810Z,20.9
2023-11-13T01:43:08.497Z,20.9
2023-11-13T01:49:01.399Z,20.9
2023-11-13T01:54:53.064Z,20.9
2023-11-13T02:00:44.537Z,21.1
2023-11-13T02:06:37.213Z,21.5
2023-11-13T02:12:28.654Z,22.4
2023-11-13T02:18:20.558Z,23.6
2023-11-13T02:23:57.458Z,24.7
2023-11-13T02:29:48.793Z,25.7
2023-11-13T02:35:40.827Z,26.6
2023-11-13T02:41:32.473Z,27.4
2023-11-13T02:47:23.674Z,28.3
2023-11-13T02:53:15.804Z,29.1
2023-11-13T02:59:08.614Z,30
2023-11-13T03:05:00.884Z,30.9
2023-11-13T03:10:52.496Z,31.3
2023-11-13T03:16:28.758Z,31.4
2023-11-13T03:22:20.167Z,31.3
2023-11-13T03:27:56.720Z,31.7
2023-11-13T03:33:49.495Z,32
2023-11-13T03:39:25.398Z,32.1
2023-11-13T03:45:17.401Z,32.1
2023-11-13T03:51:10.002Z,31.9
2023-11-13T03:57:01.773Z,31.8
2023-11-13T04:02:54.399Z,31.6
2023-11-13T04:08:47.063Z,31.5
2023-11-13T04:14:37.767Z,31.4
2023-11-13T04:20:14.404Z,31.3
2023-11-13T04:26:06.776Z,31.2
2023-11-13T04:31:46.710Z,31.1
2023-11-13T04:37:23.833Z,31.1
2023-11-13T04:43:15.950Z,30.9
2023-11-13T04:49:07.997Z,30.9
2023-11-13T04:54:59.018Z,30.8
2023-11-13T05:00:55.226Z,30.8
2023-11-13T05:06:47.662Z,30.8
2023-11-13T05:12:39.682Z,30.6
2023-11-13T05:18:34.527Z,30.6
2023-11-13T05:24:26.473Z,30.5
2023-11-13T05:30:18.378Z,30.4
2023-11-13T05:36:11.276Z,30.4
2023-11-13T05:42:02.289Z,30.3
2023-11-13T05:47:54.761Z,30.3
2023-11-13T05:53:49.738Z,30.1
2023-11-13T05:59:42.161Z,30
2023-11-13T06:05:34.950Z,29.8
2023-11-13T06:11:29.929Z,29.7
2023-11-13T06:17:21.219Z,29.6
2023-11-13T06:22:57.230Z,29.5
2023-11-13T06:28:52.876Z,29.4
2023-11-13T06:34:47.141Z,29.4
2023-11-13T06:40:23.811Z,29.4
2023-11-13T06:46:16.666Z,29.3
2023-11-13T06:52:09.055Z,29.3
2023-11-13T06:58:00.783Z,29.2
2023-11-13T07:03:54.339Z,29.1
2023-11-13T07:09:45.441Z,29.1
2023-11-13T07:15:25.099Z,29
2023-11-13T07:21:18.497Z,28.9
2023-11-13T07:27:10.326Z,28.8
2023-11-13T07:33:02.672Z,28.7
2023-11-13T07:38:55.738Z,28.6
2023-11-13T07:44:47.112Z,28.6
2023-11-13T07:50:55.877Z,28.6
2023-11-13T07:56:50.520Z,21.9
2023-11-13T08:02:44.062Z,54.7
2023-11-13T08:08:43.991Z,50.6
2023-11-13T08:14:36.924Z,46.4
2023-11-13T08:20:28.110Z,46.1
2023-11-13T08:26:21.270Z,58.4
2023-11-13T08:32:17.205Z,52.8
2023-11-13T08:38:09.237Z,47.9
2023-11-13T08:43:59.279Z,59.8
2023-11-13T08:50:08.710Z,57.4
2023-11-13T08:56:00.120Z,54.6
2023-11-13T09:01:37.639Z,55
2023-11-13T09:07:34.740Z,55.5
2023-11-13T09:13:26.721Z,55.3
2023-11-13T09:19:03.424Z,49.9
2023-11-13T09:24:56.401Z,47.3
2023-11-13T09:30:47.831Z,62.7
2023-11-13T09:36:39.451Z,56.6
2023-11-13T09:42:32.553Z,55.9
2023-11-13T09:48:37.605Z,57.4
2023-11-13T09:54:38.062Z,57.6
2023-11-13T10:00:31.193Z,58
2023-11-13T10:06:27.803Z,58.4
2023-11-13T10:17:57.296Z,58.4
2023-11-13T10:29:44.124Z,58.8
2023-11-13T10:35:25.948Z,58.8
2023-11-13T10:41:25.893Z,58.9
2023-11-13T10:47:21.399Z,58.8
2023-11-13T10:53:14.181Z,59.1
2023-11-13T10:58:50.994Z,58.9
2023-11-13T11:04:49.405Z,58.8
2023-11-13T11:10:46.999Z,58.6
2023-11-13T11:16:43.251Z,58.4
2023-11-13T11:22:37.871Z,58.1
2023-11-13T11:28:35.128Z,55.8
2023-11-13T11:34:19.390Z,50.1
2023-11-13T11:45:50.759Z,63.4
2023-11-13T11:51:57.955Z,57.1
2023-11-13T11:57:49.959Z,51.7
2023-11-13T12:03:45.280Z,51.1
2023-11-13T12:09:37.437Z,62.3
2023-11-13T12:15:13.420Z,56.6
2023-11-13T12:21:20.511Z,51.5
2023-11-13T12:27:11.594Z,46.4
2023-11-13T12:33:04.075Z,42.6
2023-11-13T12:38:41.451Z,41.8
2023-11-13T12:44:32.737Z,59.8
2023-11-13T12:50:32.009Z,55.3
2023-11-13T12:56:12.641Z,50.9
2023-11-13T13:02:16.134Z,46.1
2023-11-13T13:08:13.274Z,42.2
2023-11-13T13:14:22.738Z,39.7
2023-11-13T13:20:15.310Z,37.8
2023-11-13T13:26:07.901Z,36.3
2023-11-13T13:32:02.334Z,35.2
2023-11-13T13:37:55.005Z,34.3
2023-11-13T13:43:45.957Z,33.5
2023-11-13T13:49:38.910Z,32.8
2023-11-13T13:55:34.023Z,32.1
2023-11-13T14:01:40.563Z,31.6
2023-11-13T14:07:34.280Z,31.1
2023-11-13T14:13:47.337Z,30.7
2023-11-13T14:19:40.556Z,30.3
2023-11-13T14:25:35.713Z,30
2023-11-13T14:30:58.323Z,29.7
2023-11-13T14:36:50.565Z,29.4
2023-11-13T14:42:29.338Z,29.3
2023-11-13T14:48:23.610Z,29.1
2023-11-13T14:54:21.550Z,28.9
2023-11-13T15:00:14.976Z,28.8
2023-11-13T15:06:08.713Z,28.7
2023-11-13T15:11:59.660Z,28.6
2023-11-13T15:17:52.876Z,28.5
2023-11-13T15:24:33.361Z,28.4
2023-11-13T15:30:11.493Z,28.4
2023-11-13T15:36:12.383Z,28.3
2023-11-13T15:42:04.668Z,28.4
2023-11-13T15:47:41.340Z,28.3
2023-11-13T15:53:18.747Z,28.3
2023-11-13T15:59:11.359Z,28.3
2023-11-13T16:05:07.007Z,28.3
2023-11-13T16:11:00.398Z,28.3
2023-11-13T16:16:53.524Z,28.2
2023-11-13T16:22:33.151Z,28.5
2023-11-13T16:28:25.354Z,29.1
2023-11-13T16:34:17.897Z,29.6
2023-11-13T16:39:52.358Z,29.8
2023-11-13T16:45:44.912Z,29.9
2023-11-13T16:51:39.622Z,29.9
2023-11-13T16:57:35.033Z,29.8
2023-11-13T17:03:28.054Z,29.6
2023-11-13T17:09:22.266Z,29.5
2023-11-13T17:14:58.410Z,29.4
2023-11-13T17:20:54.969Z,29.3
2023-11-13T17:26:34.632Z,29.2
2023-11-13T17:32:27.752Z,29.1
2023-11-13T17:38:21.040Z,29.1
2023-11-13T17:43:57.380Z,29
2023-11-13T17:49:33.557Z,28.9
2023-11-13T17:55:25.428Z,28.8
2023-11-13T18:01:20.521Z,28.7
2023-11-13T18:07:16.132Z,28.7
2023-11-13T18:12:52.747Z,28.6
2023-11-13T18:18:44.586Z,28.6
2023-11-13T18:24:34.927Z,28.5
2023-11-13T18:30:06.865Z,28.4
2023-11-13T18:35:59.238Z,28.4
2023-11-13T18:41:54.542Z,28.4
2023-11-13T18:47:47.100Z,28.4
2023-11-13T18:53:38.648Z,28.4
2023-11-13T18:59:29.322Z,28.3
2023-11-13T19:05:09.587Z,28.3
2023-11-13T19:11:07.147Z,28.3
2023-11-13T19:16:58.631Z,28.3
2023-11-13T19:22:51.412Z,28.3
2023-11-13T19:28:28.159Z,28.3
2023-11-13T19:33:48.170Z,28.3
2023-11-13T19:39:25.623Z,28.3
2023-11-13T19:44:57.092Z,28.2
2023-11-13T19:50:49.466Z,28.2
2023-11-13T19:56:36.794Z,28.2
2023-11-13T20:01:59.253Z,28.2
2023-11-13T20:07:23.736Z,28.1
2023-11-13T20:13:01.078Z,28.1
2023-11-13T20:18:50.256Z,28.1
2023-11-13T20:24:11.131Z,28.2
2023-11-13T20:30:11.589Z,28.4
2023-11-13T20:35:51.721Z,28.6
2023-11-13T20:41:27.756Z,28.7
2023-11-13T20:47:04.331Z,28.8
2023-11-13T20:52:41.863Z,28.7
2023-11-13T20:58:17.457Z,28.6
2023-11-13T21:03:41.021Z,28.6
2023-11-13T21:09:30.818Z,28.5
2023-11-13T21:15:22.643Z,28.4
2023-11-13T21:21:00.486Z,28.3
2023-11-13T21:26:36.794Z,28.2
2023-11-13T21:32:14.127Z,28.1
2023-11-13T21:37:51.062Z,28
2023-11-13T21:43:42.856Z,27.9
2023-11-13T21:54:55.941Z,27.8
2023-11-13T22:00:34.229Z,27.7
2023-11-13T22:05:56.197Z,27.7
2023-11-13T22:11:48.155Z,27.6
2023-11-13T22:17:25.653Z,27.5
2023-11-13T22:23:02.288Z,27.4
2023-11-13T22:28:38.530Z,27.4
2023-11-13T22:34:15.233Z,27.3
2023-11-13T22:39:51.339Z,27.3
2023-11-13T22:45:28.114Z,27.3
2023-11-13T22:51:05.385Z,27.3
2023-11-13T22:56:42.136Z,27.2
2023-11-13T23:02:19.082Z,27.1
2023-11-13T23:07:40.733Z,27.1
2023-11-13T23:13:16.654Z,27.1
2023-11-13T23:18:54.292Z,27
2023-11-13T23:24:54.568Z,27
2023-11-13T23:30:30.771Z,26.9
2023-11-13T23:36:07.386Z,26.9
2023-11-13T23:41:44.508Z,26.9
2023-11-13T23:47:20.667Z,26.9
2023-11-13T23:52:56.975Z,26.8
2023-11-13T23:58:33.667Z,26.8
